sim
Sign-in with your pilot id or email,
or register
Callsign
Passwort

Schedule Details

Flight Number: OEO4009
Departure: Hamburg Airport (EDDH) at 06:40
Arrival: Munich Airport (EDDM) at 08:05

Weather Information
Getting current METAR information for EDDH 211050Z 14005KT 090V170 CAVOK 22/09 Q1018 NOSIG
Getting current METAR information for EDDM 211050Z 04005KT 330V100 CAVOK 21/13 Q1017 NOSIG

Schedule Frequency

Route Map